Pegswood, United Kingdom
Current Conditions -  °F | °C
As of 4:20 AM on Wednesday 28 Jan 2015 (Local Time) from EGNT Reporting Station
Scattered Clouds Scattered Clouds  
Wind Chill: 43°   Ceiling: Unl
Heat Index: 48°   Visibility: 6mi
Dew Point: 41°   Wind: 12mph
Humidity: 76%   Direction: 230°SW
Pressure: 29.41"   Gusts: NA
Location:  55.18°N, 1.65°W
Report Text: EGNT 280420Z 23010KT 200V270 9999 SCT031 09/05 Q0996
Loading
Personal Weather Stations






























Interactive Weather Map New forecast layout! Learn more

10-Day Weather Forecast

Advertisements
Track Severe Weather on mobile